sensor_id;sensor_type;location;lat;lon;timestamp;P1;durP1;ratioP1;P2;durP2;ratioP2
68714;SDS011;55692;53.356;10.030;2024-02-15T00:00:36;35.35;;;14.45;;
68714;SDS011;55692;53.356;10.030;2024-02-15T00:03:02;35.80;;;15.07;;
68714;SDS011;55692;53.356;10.030;2024-02-15T00:05:29;33.95;;;13.90;;
68714;SDS011;55692;53.356;10.030;2024-02-15T00:07:55;37.78;;;14.15;;
68714;SDS011;55692;53.356;10.030;2024-02-15T00:10:21;38.67;;;14.32;;
68714;SDS011;55692;53.356;10.030;2024-02-15T00:12:49;33.80;;;14.35;;
68714;SDS011;55692;53.356;10.030;2024-02-15T00:15:16;33.00;;;14.02;;
68714;SDS011;55692;53.356;10.030;2024-02-15T00:17:44;37.30;;;13.93;;
68714;SDS011;55692;53.356;10.030;2024-02-15T00:20:11;31.02;;;12.88;;
68714;SDS011;55692;53.356;10.030;2024-02-15T00:22:38;36.25;;;13.05;;
68714;SDS011;55692;53.356;10.030;2024-02-15T00:25:06;34.58;;;13.90;;
68714;SDS011;55692;53.356;10.030;2024-02-15T00:27:34;30.45;;;12.40;;
68714;SDS011;55692;53.356;10.030;2024-02-15T00:30:00;34.03;;;12.45;;
68714;SDS011;55692;53.356;10.030;2024-02-15T00:32:26;33.60;;;12.90;;
68714;SDS011;55692;53.356;10.030;2024-02-15T00:34:53;29.52;;;12.55;;
68714;SDS011;55692;53.356;10.030;2024-02-15T00:37:19;31.38;;;12.35;;
68714;SDS011;55692;53.356;10.030;2024-02-15T00:39:45;30.95;;;11.80;;
68714;SDS011;55692;53.356;10.030;2024-02-15T00:42:11;31.92;;;12.73;;
68714;SDS011;55692;53.356;10.030;2024-02-15T00:44:37;34.47;;;13.13;;
68714;SDS011;55692;53.356;10.030;2024-02-15T00:47:04;39.92;;;14.45;;
68714;SDS011;55692;53.356;10.030;2024-02-15T00:49:30;34.30;;;13.98;;
68714;SDS011;55692;53.356;10.030;2024-02-15T00:51:57;40.20;;;13.57;;
68714;SDS011;55692;53.356;10.030;2024-02-15T00:54:23;39.45;;;14.23;;
68714;SDS011;55692;53.356;10.030;2024-02-15T00:56:49;41.00;;;15.45;;
68714;SDS011;55692;53.356;10.030;2024-02-15T00:59:15;39.95;;;15.27;;
68714;SDS011;55692;53.356;10.030;2024-02-15T01:01:41;42.78;;;15.63;;
68714;SDS011;55692;53.356;10.030;2024-02-15T01:04:07;47.17;;;15.57;;
68714;SDS011;55692;53.356;10.030;2024-02-15T01:06:33;41.75;;;15.32;;
68714;SDS011;55692;53.356;10.030;2024-02-15T01:08:59;38.72;;;15.90;;
68714;SDS011;55692;53.356;10.030;2024-02-15T01:11:29;42.25;;;15.45;;
68714;SDS011;55692;53.356;10.030;2024-02-15T01:13:57;38.40;;;13.60;;
68714;SDS011;55692;53.356;10.030;2024-02-15T01:16:23;32.17;;;13.45;;
68714;SDS011;55692;53.356;10.030;2024-02-15T01:18:52;38.33;;;14.35;;
68714;SDS011;55692;53.356;10.030;2024-02-15T01:21:18;39.03;;;14.35;;
68714;SDS011;55692;53.356;10.030;2024-02-15T01:23:44;39.38;;;14.73;;
68714;SDS011;55692;53.356;10.030;2024-02-15T01:26:11;39.47;;;13.93;;
68714;SDS011;55692;53.356;10.030;2024-02-15T01:28:37;38.97;;;14.13;;
68714;SDS011;55692;53.356;10.030;2024-02-15T01:31:03;44.35;;;15.30;;
68714;SDS011;55692;53.356;10.030;2024-02-15T01:33:31;37.25;;;14.13;;
68714;SDS011;55692;53.356;10.030;2024-02-15T01:35:57;36.67;;;13.90;;
68714;SDS011;55692;53.356;10.030;2024-02-15T01:38:23;36.95;;;15.07;;
68714;SDS011;55692;53.356;10.030;2024-02-15T01:40:49;37.05;;;13.60;;
68714;SDS011;55692;53.356;10.030;2024-02-15T01:43:15;39.38;;;14.38;;
68714;SDS011;55692;53.356;10.030;2024-02-15T01:45:41;36.42;;;14.73;;
68714;SDS011;55692;53.356;10.030;2024-02-15T01:48:08;39.85;;;13.85;;
68714;SDS011;55692;53.356;10.030;2024-02-15T01:50:35;39.35;;;14.32;;
68714;SDS011;55692;53.356;10.030;2024-02-15T01:53:02;37.72;;;14.00;;
68714;SDS011;55692;53.356;10.030;2024-02-15T01:55:29;42.08;;;14.40;;
68714;SDS011;55692;53.356;10.030;2024-02-15T01:57:55;37.92;;;14.20;;
68714;SDS011;55692;53.356;10.030;2024-02-15T02:00:21;42.70;;;13.90;;
68714;SDS011;55692;53.356;10.030;2024-02-15T02:02:49;38.22;;;13.85;;
68714;SDS011;55692;53.356;10.030;2024-02-15T02:05:15;40.78;;;14.23;;
68714;SDS011;55692;53.356;10.030;2024-02-15T02:07:41;42.33;;;13.60;;
68714;SDS011;55692;53.356;10.030;2024-02-15T02:10:07;42.78;;;15.07;;
68714;SDS011;55692;53.356;10.030;2024-02-15T02:12:36;39.20;;;13.50;;
68714;SDS011;55692;53.356;10.030;2024-02-15T02:15:04;40.95;;;13.60;;
68714;SDS011;55692;53.356;10.030;2024-02-15T02:17:31;44.65;;;14.35;;
68714;SDS011;55692;53.356;10.030;2024-02-15T02:19:59;44.85;;;14.02;;
68714;SDS011;55692;53.356;10.030;2024-02-15T02:22:25;45.60;;;15.05;;
68714;SDS011;55692;53.356;10.030;2024-02-15T02:27:26;39.13;;;13.95;;
68714;SDS011;55692;53.356;10.030;2024-02-15T02:29:53;42.08;;;14.63;;
68714;SDS011;55692;53.356;10.030;2024-02-15T02:32:19;39.22;;;14.45;;
68714;SDS011;55692;53.356;10.030;2024-02-15T02:34:46;40.75;;;14.25;;
68714;SDS011;55692;53.356;10.030;2024-02-15T02:37:12;38.05;;;12.40;;
68714;SDS011;55692;53.356;10.030;2024-02-15T02:39:39;41.67;;;15.18;;
68714;SDS011;55692;53.356;10.030;2024-02-15T02:42:05;40.88;;;13.20;;
68714;SDS011;55692;53.356;10.030;2024-02-15T02:44:31;36.33;;;12.77;;
68714;SDS011;55692;53.356;10.030;2024-02-15T02:46:57;35.38;;;12.27;;
68714;SDS011;55692;53.356;10.030;2024-02-15T02:49:23;34.95;;;12.85;;
68714;SDS011;55692;53.356;10.030;2024-02-15T02:51:49;32.25;;;12.25;;
68714;SDS011;55692;53.356;10.030;2024-02-15T02:54:15;34.97;;;11.80;;
68714;SDS011;55692;53.356;10.030;2024-02-15T02:56:41;36.45;;;12.82;;
68714;SDS011;55692;53.356;10.030;2024-02-15T02:59:10;38.35;;;12.77;;
68714;SDS011;55692;53.356;10.030;2024-02-15T03:01:36;34.53;;;12.20;;
68714;SDS011;55692;53.356;10.030;2024-02-15T03:04:02;32.25;;;12.02;;
68714;SDS011;55692;53.356;10.030;2024-02-15T03:06:28;36.53;;;12.10;;
68714;SDS011;55692;53.356;10.030;2024-02-15T03:08:54;39.33;;;13.13;;
68714;SDS011;55692;53.356;10.030;2024-02-15T03:11:20;36.25;;;12.82;;
68714;SDS011;55692;53.356;10.030;2024-02-15T03:13:47;32.72;;;11.20;;
68714;SDS011;55692;53.356;10.030;2024-02-15T03:16:14;30.20;;;12.00;;
68714;SDS011;55692;53.356;10.030;2024-02-15T03:18:41;34.33;;;12.02;;
68714;SDS011;55692;53.356;10.030;2024-02-15T03:21:08;37.63;;;12.48;;
68714;SDS011;55692;53.356;10.030;2024-02-15T03:23:36;38.25;;;11.98;;
68714;SDS011;55692;53.356;10.030;2024-02-15T03:26:02;36.10;;;12.70;;
68714;SDS011;55692;53.356;10.030;2024-02-15T03:28:31;34.75;;;12.70;;
68714;SDS011;55692;53.356;10.030;2024-02-15T03:30:57;39.33;;;12.35;;
68714;SDS011;55692;53.356;10.030;2024-02-15T03:33:25;38.95;;;13.18;;
68714;SDS011;55692;53.356;10.030;2024-02-15T03:35:57;32.53;;;12.10;;
68714;SDS011;55692;53.356;10.030;2024-02-15T03:38:25;36.20;;;12.80;;
68714;SDS011;55692;53.356;10.030;2024-02-15T03:40:54;45.47;;;13.43;;
68714;SDS011;55692;53.356;10.030;2024-02-15T03:43:20;36.88;;;12.88;;
68714;SDS011;55692;53.356;10.030;2024-02-15T03:45:46;47.08;;;12.98;;
68714;SDS011;55692;53.356;10.030;2024-02-15T03:48:12;40.08;;;12.93;;
68714;SDS011;55692;53.356;10.030;2024-02-15T03:50:38;38.33;;;12.90;;
68714;SDS011;55692;53.356;10.030;2024-02-15T03:53:04;40.38;;;13.48;;
68714;SDS011;55692;53.356;10.030;2024-02-15T03:55:31;35.55;;;12.85;;
68714;SDS011;55692;53.356;10.030;2024-02-15T03:57:58;43.58;;;14.10;;
68714;SDS011;55692;53.356;10.030;2024-02-15T04:00:24;40.72;;;14.02;;
68714;SDS011;55692;53.356;10.030;2024-02-15T04:02:50;37.72;;;13.50;;
68714;SDS011;55692;53.356;10.030;2024-02-15T04:05:16;39.85;;;13.90;;
68714;SDS011;55692;53.356;10.030;2024-02-15T04:07:43;40.47;;;13.52;;
68714;SDS011;55692;53.356;10.030;2024-02-15T04:10:09;38.40;;;13.73;;
68714;SDS011;55692;53.356;10.030;2024-02-15T04:12:36;46.00;;;13.25;;
68714;SDS011;55692;53.356;10.030;2024-02-15T04:15:02;48.33;;;14.82;;
68714;SDS011;55692;53.356;10.030;2024-02-15T04:17:36;41.83;;;14.02;;
68714;SDS011;55692;53.356;10.030;2024-02-15T04:20:03;43.80;;;14.82;;
68714;SDS011;55692;53.356;10.030;2024-02-15T04:22:29;39.75;;;15.05;;
68714;SDS011;55692;53.356;10.030;2024-02-15T04:25:02;39.17;;;14.52;;
68714;SDS011;55692;53.356;10.030;2024-02-15T04:27:28;39.20;;;13.88;;
68714;SDS011;55692;53.356;10.030;2024-02-15T04:29:54;47.10;;;14.43;;
68714;SDS011;55692;53.356;10.030;2024-02-15T04:32:20;47.53;;;15.27;;
68714;SDS011;55692;53.356;10.030;2024-02-15T04:34:46;42.83;;;15.15;;
68714;SDS011;55692;53.356;10.030;2024-02-15T04:37:13;41.95;;;13.52;;
68714;SDS011;55692;53.356;10.030;2024-02-15T04:39:41;39.90;;;13.80;;
68714;SDS011;55692;53.356;10.030;2024-02-15T04:42:07;42.58;;;14.60;;
68714;SDS011;55692;53.356;10.030;2024-02-15T04:44:39;39.75;;;13.90;;
68714;SDS011;55692;53.356;10.030;2024-02-15T04:47:05;45.97;;;15.35;;
68714;SDS011;55692;53.356;10.030;2024-02-15T04:49:31;47.22;;;15.27;;
68714;SDS011;55692;53.356;10.030;2024-02-15T04:51:57;41.63;;;15.02;;
68714;SDS011;55692;53.356;10.030;2024-02-15T04:54:26;39.05;;;14.88;;
68714;SDS011;55692;53.356;10.030;2024-02-15T04:56:52;41.80;;;15.00;;
68714;SDS011;55692;53.356;10.030;2024-02-15T04:59:19;39.05;;;14.98;;
68714;SDS011;55692;53.356;10.030;2024-02-15T05:01:46;43.78;;;15.13;;
68714;SDS011;55692;53.356;10.030;2024-02-15T05:04:14;50.33;;;16.20;;
68714;SDS011;55692;53.356;10.030;2024-02-15T05:06:41;46.03;;;15.35;;
68714;SDS011;55692;53.356;10.030;2024-02-15T05:09:07;52.13;;;16.10;;
68714;SDS011;55692;53.356;10.030;2024-02-15T05:11:35;47.10;;;16.02;;
68714;SDS011;55692;53.356;10.030;2024-02-15T05:14:04;48.63;;;15.40;;
68714;SDS011;55692;53.356;10.030;2024-02-15T05:16:32;49.60;;;16.05;;
68714;SDS011;55692;53.356;10.030;2024-02-15T05:18:58;46.78;;;16.52;;
68714;SDS011;55692;53.356;10.030;2024-02-15T05:21:24;49.40;;;16.65;;
68714;SDS011;55692;53.356;10.030;2024-02-15T05:23:50;44.72;;;15.23;;
68714;SDS011;55692;53.356;10.030;2024-02-15T05:26:17;50.05;;;15.60;;
68714;SDS011;55692;53.356;10.030;2024-02-15T05:28:48;49.28;;;17.40;;
68714;SDS011;55692;53.356;10.030;2024-02-15T05:31:18;48.00;;;16.52;;
68714;SDS011;55692;53.356;10.030;2024-02-15T05:33:50;47.25;;;15.98;;
68714;SDS011;55692;53.356;10.030;2024-02-15T05:36:17;48.10;;;15.13;;
68714;SDS011;55692;53.356;10.030;2024-02-15T05:38:48;45.30;;;14.68;;
68714;SDS011;55692;53.356;10.030;2024-02-15T05:41:14;47.67;;;15.55;;
68714;SDS011;55692;53.356;10.030;2024-02-15T05:43:41;44.40;;;14.68;;
68714;SDS011;55692;53.356;10.030;2024-02-15T05:46:07;40.70;;;15.25;;
68714;SDS011;55692;53.356;10.030;2024-02-15T05:48:33;48.55;;;14.52;;
68714;SDS011;55692;53.356;10.030;2024-02-15T05:51:04;44.17;;;14.68;;
68714;SDS011;55692;53.356;10.030;2024-02-15T05:53:30;47.65;;;14.32;;
68714;SDS011;55692;53.356;10.030;2024-02-15T05:56:01;45.42;;;14.40;;
68714;SDS011;55692;53.356;10.030;2024-02-15T05:58:29;47.13;;;15.20;;
68714;SDS011;55692;53.356;10.030;2024-02-15T06:00:55;46.67;;;15.48;;
68714;SDS011;55692;53.356;10.030;2024-02-15T06:03:26;44.50;;;15.15;;
68714;SDS011;55692;53.356;10.030;2024-02-15T06:05:52;47.72;;;15.93;;
68714;SDS011;55692;53.356;10.030;2024-02-15T06:08:23;46.75;;;15.85;;
68714;SDS011;55692;53.356;10.030;2024-02-15T06:10:49;55.53;;;17.58;;
68714;SDS011;55692;53.356;10.030;2024-02-15T06:13:15;47.00;;;16.48;;
68714;SDS011;55692;53.356;10.030;2024-02-15T06:15:41;49.85;;;16.45;;
68714;SDS011;55692;53.356;10.030;2024-02-15T06:18:07;57.00;;;16.02;;
68714;SDS011;55692;53.356;10.030;2024-02-15T06:20:37;45.42;;;15.48;;
68714;SDS011;55692;53.356;10.030;2024-02-15T06:23:04;58.03;;;17.48;;
68714;SDS011;55692;53.356;10.030;2024-02-15T06:25:32;45.70;;;15.90;;
68714;SDS011;55692;53.356;10.030;2024-02-15T06:27:58;49.63;;;16.50;;
68714;SDS011;55692;53.356;10.030;2024-02-15T06:30:27;43.95;;;15.85;;
68714;SDS011;55692;53.356;10.030;2024-02-15T06:33:12;48.35;;;15.05;;
68714;SDS011;55692;53.356;10.030;2024-02-15T06:35:57;46.85;;;14.27;;
68714;SDS011;55692;53.356;10.030;2024-02-15T06:38:41;41.80;;;14.50;;
68714;SDS011;55692;53.356;10.030;2024-02-15T06:41:26;44.55;;;15.20;;
68714;SDS011;55692;53.356;10.030;2024-02-15T06:43:53;47.33;;;15.73;;
68714;SDS011;55692;53.356;10.030;2024-02-15T06:46:20;47.97;;;15.30;;
68714;SDS011;55692;53.356;10.030;2024-02-15T06:48:46;47.25;;;15.60;;
68714;SDS011;55692;53.356;10.030;2024-02-15T06:51:13;49.38;;;16.13;;
68714;SDS011;55692;53.356;10.030;2024-02-15T06:53:40;47.03;;;15.82;;
68714;SDS011;55692;53.356;10.030;2024-02-15T06:56:08;50.13;;;16.42;;
68714;SDS011;55692;53.356;10.030;2024-02-15T06:58:34;48.08;;;16.00;;
68714;SDS011;55692;53.356;10.030;2024-02-15T07:01:00;49.03;;;16.58;;
68714;SDS011;55692;53.356;10.030;2024-02-15T07:03:28;47.88;;;15.65;;
68714;SDS011;55692;53.356;10.030;2024-02-15T07:05:54;50.22;;;16.27;;
68714;SDS011;55692;53.356;10.030;2024-02-15T07:08:21;50.50;;;16.02;;
68714;SDS011;55692;53.356;10.030;2024-02-15T07:10:49;47.80;;;15.68;;
68714;SDS011;55692;53.356;10.030;2024-02-15T07:13:16;44.55;;;14.70;;
68714;SDS011;55692;53.356;10.030;2024-02-15T07:15:42;44.47;;;15.23;;
68714;SDS011;55692;53.356;10.030;2024-02-15T07:18:09;40.92;;;15.65;;
68714;SDS011;55692;53.356;10.030;2024-02-15T07:20:35;44.63;;;15.60;;
68714;SDS011;55692;53.356;10.030;2024-02-15T07:23:02;39.90;;;15.35;;
68714;SDS011;55692;53.356;10.030;2024-02-15T07:25:28;43.20;;;15.55;;
68714;SDS011;55692;53.356;10.030;2024-02-15T07:27:55;44.63;;;15.13;;
68714;SDS011;55692;53.356;10.030;2024-02-15T07:30:22;45.33;;;14.98;;
68714;SDS011;55692;53.356;10.030;2024-02-15T07:32:49;46.03;;;15.63;;
68714;SDS011;55692;53.356;10.030;2024-02-15T07:35:16;39.65;;;14.73;;
68714;SDS011;55692;53.356;10.030;2024-02-15T07:37:55;38.80;;;14.45;;
68714;SDS011;55692;53.356;10.030;2024-02-15T07:40:23;43.08;;;14.30;;
68714;SDS011;55692;53.356;10.030;2024-02-15T07:42:54;42.65;;;15.25;;
68714;SDS011;55692;53.356;10.030;2024-02-15T07:45:20;34.08;;;14.55;;
68714;SDS011;55692;53.356;10.030;2024-02-15T07:47:46;34.88;;;13.63;;
68714;SDS011;55692;53.356;10.030;2024-02-15T07:50:17;38.05;;;14.05;;
68714;SDS011;55692;53.356;10.030;2024-02-15T07:52:48;32.58;;;12.68;;
68714;SDS011;55692;53.356;10.030;2024-02-15T07:55:14;31.58;;;13.23;;
68714;SDS011;55692;53.356;10.030;2024-02-15T07:57:40;32.08;;;12.48;;
68714;SDS011;55692;53.356;10.030;2024-02-15T08:00:07;27.08;;;11.30;;
68714;SDS011;55692;53.356;10.030;2024-02-15T08:02:37;28.33;;;11.45;;
68714;SDS011;55692;53.356;10.030;2024-02-15T08:05:07;25.50;;;10.57;;
68714;SDS011;55692;53.356;10.030;2024-02-15T08:07:38;26.92;;;10.15;;
68714;SDS011;55692;53.356;10.030;2024-02-15T08:10:05;23.02;;;10.27;;
68714;SDS011;55692;53.356;10.030;2024-02-15T08:12:37;25.10;;;10.27;;
68714;SDS011;55692;53.356;10.030;2024-02-15T08:15:03;18.35;;;8.27;;
68714;SDS011;55692;53.356;10.030;2024-02-15T08:17:29;21.92;;;8.95;;
68714;SDS011;55692;53.356;10.030;2024-02-15T08:19:55;19.08;;;8.88;;
68714;SDS011;55692;53.356;10.030;2024-02-15T08:22:21;20.17;;;9.77;;
68714;SDS011;55692;53.356;10.030;2024-02-15T08:24:51;19.50;;;9.18;;
68714;SDS011;55692;53.356;10.030;2024-02-15T08:27:17;17.45;;;8.02;;
68714;SDS011;55692;53.356;10.030;2024-02-15T08:29:43;21.67;;;9.23;;
68714;SDS011;55692;53.356;10.030;2024-02-15T08:32:09;18.80;;;8.38;;
68714;SDS011;55692;53.356;10.030;2024-02-15T08:34:36;14.23;;;7.68;;
68714;SDS011;55692;53.356;10.030;2024-02-15T08:37:02;14.13;;;7.90;;
68714;SDS011;55692;53.356;10.030;2024-02-15T08:39:28;15.40;;;8.32;;
68714;SDS011;55692;53.356;10.030;2024-02-15T08:41:54;16.80;;;7.95;;
68714;SDS011;55692;53.356;10.030;2024-02-15T08:44:20;14.35;;;7.53;;
68714;SDS011;55692;53.356;10.030;2024-02-15T08:46:46;15.73;;;8.05;;
68714;SDS011;55692;53.356;10.030;2024-02-15T08:49:13;15.05;;;8.00;;
68714;SDS011;55692;53.356;10.030;2024-02-15T08:51:39;16.35;;;8.07;;
68714;SDS011;55692;53.356;10.030;2024-02-15T08:54:05;18.40;;;8.25;;
68714;SDS011;55692;53.356;10.030;2024-02-15T08:56:31;15.55;;;8.45;;
68714;SDS011;55692;53.356;10.030;2024-02-15T08:58:58;14.90;;;7.65;;
68714;SDS011;55692;53.356;10.030;2024-02-15T09:01:24;18.73;;;9.02;;
68714;SDS011;55692;53.356;10.030;2024-02-15T09:03:50;14.82;;;8.32;;
68714;SDS011;55692;53.356;10.030;2024-02-15T09:06:16;20.15;;;9.55;;
68714;SDS011;55692;53.356;10.030;2024-02-15T09:08:42;14.80;;;8.65;;
68714;SDS011;55692;53.356;10.030;2024-02-15T09:11:08;14.75;;;9.48;;
68714;SDS011;55692;53.356;10.030;2024-02-15T09:13:37;16.15;;;9.13;;
68714;SDS011;55692;53.356;10.030;2024-02-15T09:16:04;17.33;;;9.73;;
68714;SDS011;55692;53.356;10.030;2024-02-15T09:18:30;18.17;;;10.40;;
68714;SDS011;55692;53.356;10.030;2024-02-15T09:20:58;19.80;;;10.80;;
68714;SDS011;55692;53.356;10.030;2024-02-15T09:23:24;18.90;;;9.40;;
68714;SDS011;55692;53.356;10.030;2024-02-15T09:25:50;19.90;;;10.73;;
68714;SDS011;55692;53.356;10.030;2024-02-15T09:28:17;18.35;;;9.93;;
68714;SDS011;55692;53.356;10.030;2024-02-15T09:30:47;17.48;;;10.73;;
68714;SDS011;55692;53.356;10.030;2024-02-15T09:33:16;18.77;;;10.82;;
68714;SDS011;55692;53.356;10.030;2024-02-15T09:35:42;20.70;;;11.88;;
68714;SDS011;55692;53.356;10.030;2024-02-15T09:38:08;23.65;;;12.90;;
68714;SDS011;55692;53.356;10.030;2024-02-15T09:40:34;22.52;;;12.65;;
68714;SDS011;55692;53.356;10.030;2024-02-15T09:43:00;28.48;;;13.60;;
68714;SDS011;55692;53.356;10.030;2024-02-15T09:45:27;25.17;;;14.15;;
68714;SDS011;55692;53.356;10.030;2024-02-15T09:47:53;24.75;;;13.02;;
68714;SDS011;55692;53.356;10.030;2024-02-15T09:50:19;23.48;;;13.88;;
68714;SDS011;55692;53.356;10.030;2024-02-15T09:52:52;25.13;;;14.02;;
68714;SDS011;55692;53.356;10.030;2024-02-15T09:55:21;21.52;;;12.48;;
68714;SDS011;55692;53.356;10.030;2024-02-15T09:57:48;25.00;;;14.55;;
68714;SDS011;55692;53.356;10.030;2024-02-15T10:00:15;23.05;;;13.32;;
68714;SDS011;55692;53.356;10.030;2024-02-15T10:02:42;31.92;;;14.63;;
68714;SDS011;55692;53.356;10.030;2024-02-15T10:05:11;27.00;;;14.32;;
68714;SDS011;55692;53.356;10.030;2024-02-15T10:07:41;25.55;;;14.07;;
68714;SDS011;55692;53.356;10.030;2024-02-15T10:10:20;30.02;;;14.45;;
68714;SDS011;55692;53.356;10.030;2024-02-15T10:12:47;44.63;;;16.48;;
68714;SDS011;55692;53.356;10.030;2024-02-15T10:17:55;29.45;;;16.05;;
68714;SDS011;55692;53.356;10.030;2024-02-15T10:20:21;29.50;;;15.48;;
68714;SDS011;55692;53.356;10.030;2024-02-15T10:22:51;29.30;;;16.48;;
68714;SDS011;55692;53.356;10.030;2024-02-15T10:25:17;29.75;;;17.65;;
68714;SDS011;55692;53.356;10.030;2024-02-15T10:27:44;30.65;;;16.98;;
68714;SDS011;55692;53.356;10.030;2024-02-15T10:30:19;36.40;;;18.10;;
68714;SDS011;55692;53.356;10.030;2024-02-15T10:32:45;41.78;;;18.95;;
68714;SDS011;55692;53.356;10.030;2024-02-15T10:35:20;38.33;;;19.35;;
68714;SDS011;55692;53.356;10.030;2024-02-15T10:37:47;38.10;;;18.67;;
68714;SDS011;55692;53.356;10.030;2024-02-15T10:40:16;31.95;;;17.85;;
68714;SDS011;55692;53.356;10.030;2024-02-15T10:42:43;33.50;;;17.42;;
68714;SDS011;55692;53.356;10.030;2024-02-15T10:45:11;35.75;;;18.20;;
68714;SDS011;55692;53.356;10.030;2024-02-15T10:47:39;30.80;;;18.20;;
68714;SDS011;55692;53.356;10.030;2024-02-15T10:50:06;32.83;;;18.52;;
68714;SDS011;55692;53.356;10.030;2024-02-15T10:52:32;40.13;;;19.42;;
68714;SDS011;55692;53.356;10.030;2024-02-15T10:55:04;36.50;;;19.30;;
68714;SDS011;55692;53.356;10.030;2024-02-15T10:57:34;34.67;;;18.77;;
68714;SDS011;55692;53.356;10.030;2024-02-15T11:00:04;33.65;;;18.40;;
68714;SDS011;55692;53.356;10.030;2024-02-15T11:02:42;36.37;;;18.63;;
68714;SDS011;55692;53.356;10.030;2024-02-15T11:05:10;33.70;;;17.92;;
68714;SDS011;55692;53.356;10.030;2024-02-15T11:07:37;34.03;;;17.60;;
68714;SDS011;55692;53.356;10.030;2024-02-15T11:10:04;34.20;;;18.27;;
68714;SDS011;55692;53.356;10.030;2024-02-15T11:12:33;30.13;;;17.42;;
68714;SDS011;55692;53.356;10.030;2024-02-15T11:14:59;33.08;;;17.20;;
68714;SDS011;55692;53.356;10.030;2024-02-15T11:22:36;29.38;;;16.35;;
68714;SDS011;55692;53.356;10.030;2024-02-15T11:25:05;32.65;;;17.02;;
68714;SDS011;55692;53.356;10.030;2024-02-15T11:27:37;31.90;;;15.30;;
68714;SDS011;55692;53.356;10.030;2024-02-15T11:30:05;30.30;;;15.75;;
68714;SDS011;55692;53.356;10.030;2024-02-15T11:40:15;24.98;;;13.77;;
68714;SDS011;55692;53.356;10.030;2024-02-15T11:42:42;26.63;;;12.75;;
68714;SDS011;55692;53.356;10.030;2024-02-15T11:45:08;29.52;;;13.05;;
68714;SDS011;55692;53.356;10.030;2024-02-15T11:47:38;26.75;;;13.23;;
68714;SDS011;55692;53.356;10.030;2024-02-15T11:50:08;29.05;;;14.27;;
68714;SDS011;55692;53.356;10.030;2024-02-15T11:52:39;24.48;;;12.18;;
68714;SDS011;55692;53.356;10.030;2024-02-15T11:55:07;22.25;;;12.85;;
68714;SDS011;55692;53.356;10.030;2024-02-15T11:57:37;25.30;;;13.05;;
68714;SDS011;55692;53.356;10.030;2024-02-15T12:00:46;20.52;;;9.90;;
68714;SDS011;55692;53.356;10.030;2024-02-15T12:03:23;17.00;;;10.43;;
68714;SDS011;55692;53.356;10.030;2024-02-15T12:06:08;19.00;;;10.00;;
68714;SDS011;55692;53.356;10.030;2024-02-15T12:08:53;19.20;;;9.68;;
68714;SDS011;55692;53.356;10.030;2024-02-15T12:11:38;21.13;;;9.27;;
68714;SDS011;55692;53.356;10.030;2024-02-15T12:14:23;19.67;;;9.25;;
68714;SDS011;55692;53.356;10.030;2024-02-15T12:17:09;18.20;;;8.60;;
68714;SDS011;55692;53.356;10.030;2024-02-15T12:19:54;19.08;;;9.20;;
68714;SDS011;55692;53.356;10.030;2024-02-15T12:22:22;13.50;;;7.50;;
68714;SDS011;55692;53.356;10.030;2024-02-15T12:27:21;14.38;;;7.55;;
68714;SDS011;55692;53.356;10.030;2024-02-15T12:29:56;11.25;;;6.90;;
68714;SDS011;55692;53.356;10.030;2024-02-15T12:32:23;11.23;;;6.32;;
68714;SDS011;55692;53.356;10.030;2024-02-15T12:34:50;10.45;;;6.20;;
68714;SDS011;55692;53.356;10.030;2024-02-15T12:37:19;8.98;;;6.07;;
68714;SDS011;55692;53.356;10.030;2024-02-15T12:39:46;10.52;;;5.85;;
68714;SDS011;55692;53.356;10.030;2024-02-15T12:42:13;10.38;;;6.03;;
68714;SDS011;55692;53.356;10.030;2024-02-15T12:44:46;9.23;;;4.82;;
68714;SDS011;55692;53.356;10.030;2024-02-15T12:47:19;9.25;;;5.20;;
68714;SDS011;55692;53.356;10.030;2024-02-15T12:49:46;10.40;;;5.28;;
68714;SDS011;55692;53.356;10.030;2024-02-15T12:55:16;10.57;;;4.78;;
68714;SDS011;55692;53.356;10.030;2024-02-15T12:57:45;6.88;;;4.22;;
68714;SDS011;55692;53.356;10.030;2024-02-15T13:00:13;7.20;;;4.05;;
68714;SDS011;55692;53.356;10.030;2024-02-15T13:02:43;6.40;;;4.00;;
68714;SDS011;55692;53.356;10.030;2024-02-15T13:05:10;6.68;;;3.90;;
68714;SDS011;55692;53.356;10.030;2024-02-15T13:07:36;8.30;;;4.00;;
68714;SDS011;55692;53.356;10.030;2024-02-15T13:10:03;6.78;;;4.20;;
68714;SDS011;55692;53.356;10.030;2024-02-15T13:12:35;10.15;;;3.72;;
68714;SDS011;55692;53.356;10.030;2024-02-15T13:15:04;7.72;;;4.15;;
68714;SDS011;55692;53.356;10.030;2024-02-15T13:17:32;9.55;;;3.90;;
68714;SDS011;55692;53.356;10.030;2024-02-15T13:20:01;9.68;;;4.70;;
68714;SDS011;55692;53.356;10.030;2024-02-15T13:22:35;10.98;;;4.40;;
68714;SDS011;55692;53.356;10.030;2024-02-15T13:25:03;6.88;;;4.78;;
68714;SDS011;55692;53.356;10.030;2024-02-15T13:27:29;6.65;;;4.35;;
68714;SDS011;55692;53.356;10.030;2024-02-15T13:29:56;10.18;;;4.75;;
68714;SDS011;55692;53.356;10.030;2024-02-15T13:32:22;13.88;;;4.97;;
68714;SDS011;55692;53.356;10.030;2024-02-15T13:34:48;8.40;;;4.70;;
68714;SDS011;55692;53.356;10.030;2024-02-15T13:37:17;9.45;;;4.95;;
68714;SDS011;55692;53.356;10.030;2024-02-15T13:39:43;10.85;;;5.03;;
68714;SDS011;55692;53.356;10.030;2024-02-15T13:42:11;9.02;;;4.82;;
68714;SDS011;55692;53.356;10.030;2024-02-15T13:44:37;5.57;;;4.30;;
68714;SDS011;55692;53.356;10.030;2024-02-15T13:47:03;7.68;;;4.80;;
68714;SDS011;55692;53.356;10.030;2024-02-15T13:49:30;9.23;;;5.22;;
68714;SDS011;55692;53.356;10.030;2024-02-15T13:51:57;7.07;;;5.03;;
68714;SDS011;55692;53.356;10.030;2024-02-15T13:54:27;11.20;;;5.47;;
68714;SDS011;55692;53.356;10.030;2024-02-15T13:56:54;7.90;;;5.15;;
68714;SDS011;55692;53.356;10.030;2024-02-15T13:59:20;11.88;;;5.38;;
68714;SDS011;55692;53.356;10.030;2024-02-15T14:01:46;9.82;;;5.05;;
68714;SDS011;55692;53.356;10.030;2024-02-15T14:04:12;9.75;;;5.07;;
68714;SDS011;55692;53.356;10.030;2024-02-15T14:06:39;10.57;;;5.43;;
68714;SDS011;55692;53.356;10.030;2024-02-15T14:09:05;12.52;;;5.28;;
68714;SDS011;55692;53.356;10.030;2024-02-15T14:11:31;9.02;;;5.30;;
68714;SDS011;55692;53.356;10.030;2024-02-15T14:13:57;11.85;;;4.72;;
68714;SDS011;55692;53.356;10.030;2024-02-15T14:16:24;9.30;;;5.43;;
68714;SDS011;55692;53.356;10.030;2024-02-15T14:18:50;8.43;;;4.70;;
68714;SDS011;55692;53.356;10.030;2024-02-15T14:21:16;7.80;;;5.10;;
68714;SDS011;55692;53.356;10.030;2024-02-15T14:23:43;9.13;;;4.70;;
68714;SDS011;55692;53.356;10.030;2024-02-15T14:26:09;8.77;;;4.40;;
68714;SDS011;55692;53.356;10.030;2024-02-15T14:28:35;9.45;;;4.70;;
68714;SDS011;55692;53.356;10.030;2024-02-15T14:31:04;6.65;;;4.47;;
68714;SDS011;55692;53.356;10.030;2024-02-15T14:33:49;8.25;;;4.28;;
68714;SDS011;55692;53.356;10.030;2024-02-15T14:36:16;11.02;;;4.70;;
68714;SDS011;55692;53.356;10.030;2024-02-15T14:38:42;8.75;;;4.93;;
68714;SDS011;55692;53.356;10.030;2024-02-15T14:41:09;8.02;;;4.45;;